Aviation Digital Data Service (ADDS)

Output produced by TAFs form (0804 UTC 21 September 2014)
found at http://www.aviationweather.gov/adds/tafs/
 
KMRB 210535Z 2106/2206 00000KT P6SM BKN090 
     FM210900 00000KT 3SM BR SCT250 
     FM211300 VRB03KT P6SM SCT250 
     FM211700 25008KT P6SM VCTS SCT060CB 
     FM212100 25010KT P6SM BKN250 
     FM220300 28006KT 3SM BR BKN250